createdAt,value
2022-11-16T00:00:17.858Z,66.40
2022-11-16T00:01:18.053Z,68.80
2022-11-16T00:02:18.224Z,59.20
2022-11-16T00:03:18.380Z,68.70
2022-11-16T00:04:18.518Z,73.70
2022-11-16T00:05:18.710Z,77.80
2022-11-16T00:06:18.898Z,76.70
2022-11-16T00:07:19.143Z,81.90
2022-11-16T00:08:19.259Z,77.20
2022-11-16T00:09:19.428Z,94.60
2022-11-16T00:10:19.570Z,78.70
2022-11-16T00:11:19.759Z,88.90
2022-11-16T00:12:19.947Z,76.50
2022-11-16T00:13:20.148Z,82.50
2022-11-16T00:14:20.297Z,65.70
2022-11-16T00:15:20.489Z,85.30
2022-11-16T00:16:20.670Z,88.30
2022-11-16T00:17:20.859Z,71.40
2022-11-16T00:18:21.059Z,76.60
2022-11-16T00:19:21.220Z,74.70
2022-11-16T00:20:21.398Z,90.70
2022-11-16T00:21:21.578Z,100.60
2022-11-16T00:22:21.739Z,75.80
2022-11-16T00:23:21.928Z,88.10
2022-11-16T00:24:22.078Z,80.40
2022-11-16T00:25:22.465Z,71.20
2022-11-16T00:26:22.448Z,69.70
2022-11-16T00:27:22.637Z,65.20
2022-11-16T00:28:22.838Z,77.40
2022-11-16T00:29:23.002Z,74.50
2022-11-16T00:30:23.180Z,69.10
2022-11-16T00:31:23.367Z,81.80
2022-11-16T00:32:23.521Z,80.00
2022-11-16T00:33:23.708Z,72.10
2022-11-16T00:34:23.871Z,68.40
2022-11-16T00:35:24.027Z,66.00
2022-11-16T00:36:24.197Z,72.00
2022-11-16T00:37:24.377Z,69.80
2022-11-16T00:38:24.587Z,67.90
2022-11-16T00:39:24.746Z,72.40
2022-11-16T00:40:24.928Z,89.70
2022-11-16T00:41:25.118Z,85.20
2022-11-16T00:42:25.308Z,75.20
2022-11-16T00:43:25.487Z,92.40
2022-11-16T00:44:25.636Z,112.00
2022-11-16T00:45:25.796Z,88.90
2022-11-16T00:46:25.978Z,79.80
2022-11-16T00:47:26.166Z,89.10
2022-11-16T00:48:26.376Z,72.30
2022-11-16T00:49:26.530Z,69.90
2022-11-16T00:50:26.710Z,72.00
2022-11-16T00:51:26.896Z,70.20
2022-11-16T00:52:27.077Z,57.80
2022-11-16T00:53:27.295Z,79.30
2022-11-16T00:54:27.441Z,74.00
2022-11-16T00:55:27.626Z,63.60
2022-11-16T00:56:27.805Z,71.70
2022-11-16T00:57:27.997Z,74.00
2022-11-16T00:58:28.194Z,115.20
2022-11-16T00:59:28.347Z,137.50
2022-11-16T01:00:28.509Z,141.60
2022-11-16T01:01:28.709Z,97.60
2022-11-16T01:02:28.845Z,130.20
2022-11-16T01:03:29.035Z,95.50
2022-11-16T01:04:29.183Z,113.40
2022-11-16T01:05:29.354Z,158.00
2022-11-16T01:06:29.515Z,120.00
2022-11-16T01:07:29.705Z,105.60
2022-11-16T01:08:29.942Z,132.40
2022-11-16T01:09:30.005Z,118.00
2022-11-16T01:10:30.166Z,110.80
2022-11-16T01:11:30.333Z,136.50
2022-11-16T01:12:30.484Z,80.40
2022-11-16T01:13:30.696Z,100.60
2022-11-16T01:14:30.865Z,130.00
2022-11-16T01:15:31.036Z,97.60
2022-11-16T01:16:31.186Z,109.10
2022-11-16T01:17:31.395Z,127.40
2022-11-16T01:18:31.971Z,82.30
2022-11-16T01:19:31.736Z,82.00
2022-11-16T01:20:31.904Z,91.20
2022-11-16T01:21:32.095Z,85.90
2022-11-16T01:22:32.275Z,114.70
2022-11-16T01:23:32.484Z,66.00
2022-11-16T01:24:32.632Z,117.40
2022-11-16T01:25:32.784Z,80.80
2022-11-16T01:26:32.967Z,68.50
2022-11-16T01:27:33.142Z,127.00
2022-11-16T01:28:33.679Z,95.70
2022-11-16T01:29:33.515Z,115.40
2022-11-16T01:30:33.706Z,126.90
2022-11-16T01:31:33.897Z,120.10
2022-11-16T01:32:34.083Z,100.30
2022-11-16T01:33:34.283Z,107.80
2022-11-16T01:34:34.442Z,73.50
2022-11-16T01:35:34.622Z,119.30
2022-11-16T01:36:34.784Z,94.10
2022-11-16T01:37:34.963Z,102.80
2022-11-16T01:38:35.530Z,102.50
2022-11-16T01:39:35.322Z,102.90
2022-11-16T01:40:35.471Z,82.00
2022-11-16T01:41:35.644Z,110.30
2022-11-16T01:42:35.835Z,120.10
2022-11-16T01:43:36.052Z,112.00
2022-11-16T01:44:36.203Z,92.80
2022-11-16T01:45:36.391Z,129.30
2022-11-16T01:46:36.550Z,74.60
2022-11-16T01:47:36.732Z,92.40
2022-11-16T01:48:37.478Z,102.30
2022-11-16T01:49:37.101Z,105.80
2022-11-16T01:50:37.252Z,85.20
2022-11-16T01:51:37.433Z,86.30
2022-11-16T01:52:37.613Z,84.30
2022-11-16T01:53:37.821Z,74.60
2022-11-16T01:54:37.962Z,72.00
2022-11-16T01:55:38.150Z,71.00
2022-11-16T01:56:38.330Z,59.60
2022-11-16T01:57:38.501Z,64.20
2022-11-16T01:58:38.681Z,70.80
2022-11-16T01:59:38.861Z,97.40
2022-11-16T02:00:39.049Z,96.90
2022-11-16T02:01:39.254Z,71.90
2022-11-16T02:02:39.423Z,98.20
2022-11-16T02:03:39.621Z,81.70
2022-11-16T02:04:39.770Z,69.10
2022-11-16T02:05:39.954Z,75.80
2022-11-16T02:06:40.138Z,87.20
2022-11-16T02:07:40.311Z,76.40
2022-11-16T02:08:40.523Z,67.40
2022-11-16T02:09:40.681Z,90.60
2022-11-16T02:10:40.859Z,92.60
2022-11-16T02:11:41.039Z,55.70
2022-11-16T02:12:41.211Z,68.70
2022-11-16T02:13:41.419Z,86.80
2022-11-16T02:14:41.561Z,92.40
2022-11-16T02:15:41.743Z,89.50
2022-11-16T02:16:41.928Z,87.50
2022-11-16T02:17:42.100Z,78.40
2022-11-16T02:18:42.303Z,82.20
2022-11-16T02:19:42.442Z,82.50
2022-11-16T02:20:42.621Z,97.70
2022-11-16T02:21:42.789Z,74.70
2022-11-16T02:22:42.970Z,129.30
2022-11-16T02:23:43.182Z,143.70
2022-11-16T02:24:43.339Z,98.60
2022-11-16T02:25:43.522Z,113.10
2022-11-16T02:26:43.718Z,90.00
2022-11-16T02:27:43.925Z,80.40
2022-11-16T02:28:44.114Z,106.70
2022-11-16T02:29:44.257Z,102.10
2022-11-16T02:30:44.447Z,103.00
2022-11-16T02:31:44.628Z,93.30
2022-11-16T02:32:44.812Z,160.70
2022-11-16T02:33:44.978Z,106.80
2022-11-16T02:34:45.139Z,86.70
2022-11-16T02:35:45.317Z,146.60
2022-11-16T02:36:45.517Z,139.60
2022-11-16T02:37:45.667Z,113.30
2022-11-16T02:38:45.865Z,104.70
2022-11-16T02:39:46.037Z,112.40
2022-11-16T02:40:46.195Z,143.40
2022-11-16T02:41:46.381Z,185.30
2022-11-16T02:42:46.568Z,177.60
2022-11-16T02:43:46.777Z,117.60
2022-11-16T02:44:46.936Z,215.70
2022-11-16T02:45:47.095Z,159.30
2022-11-16T02:46:47.287Z,84.70
2022-11-16T02:47:47.476Z,115.00
2022-11-16T02:48:47.636Z,151.80
2022-11-16T02:49:47.805Z,105.70
2022-11-16T02:50:47.956Z,119.80
2022-11-16T02:51:48.156Z,83.10
2022-11-16T02:52:48.337Z,128.00
2022-11-16T02:53:48.516Z,112.10
2022-11-16T02:54:48.675Z,122.30
2022-11-16T02:55:48.856Z,140.40
2022-11-16T02:56:49.046Z,127.50
2022-11-16T02:57:49.236Z,157.20
2022-11-16T02:58:49.617Z,136.90
2022-11-16T02:59:49.615Z,105.70
2022-11-16T03:00:49.843Z,322.40
2022-11-16T03:01:49.977Z,171.40
2022-11-16T03:02:50.165Z,150.40
2022-11-16T03:03:50.378Z,80.40
2022-11-16T03:04:50.484Z,84.70
2022-11-16T03:05:50.674Z,137.70
2022-11-16T03:06:50.880Z,172.10
2022-11-16T03:07:51.002Z,99.50
2022-11-16T03:08:51.218Z,131.80
2022-11-16T03:09:51.334Z,120.10
2022-11-16T03:10:51.527Z,98.30
2022-11-16T03:11:51.712Z,116.40
2022-11-16T03:12:51.865Z,110.80
2022-11-16T03:13:52.075Z,115.50
2022-11-16T03:14:52.235Z,100.10
2022-11-16T03:15:52.404Z,100.30
2022-11-16T03:16:52.599Z,124.20
2022-11-16T03:17:52.774Z,91.60
2022-11-16T03:18:52.975Z,111.80
2022-11-16T03:19:53.124Z,97.60
2022-11-16T03:20:53.316Z,111.40
2022-11-16T03:21:53.478Z,84.00
2022-11-16T03:22:53.654Z,95.40
2022-11-16T03:23:53.862Z,71.40
2022-11-16T03:24:54.003Z,94.30
2022-11-16T03:25:54.183Z,80.20
2022-11-16T03:26:54.374Z,86.20
2022-11-16T03:27:54.554Z,67.80
2022-11-16T03:28:54.765Z,73.10
2022-11-16T03:29:54.903Z,71.30
2022-11-16T03:30:55.083Z,59.10
2022-11-16T03:31:55.263Z,66.70
2022-11-16T03:32:55.443Z,64.50
2022-11-16T03:33:55.643Z,57.80
2022-11-16T03:34:55.793Z,67.90
2022-11-16T03:35:55.974Z,59.90
2022-11-16T03:36:56.163Z,68.10
2022-11-16T03:37:56.341Z,53.40
2022-11-16T03:38:56.520Z,66.50
2022-11-16T03:39:56.693Z,66.20
2022-11-16T03:40:56.874Z,63.80
2022-11-16T03:41:57.059Z,63.70
2022-11-16T03:42:57.251Z,57.20
2022-11-16T03:43:57.451Z,60.30
2022-11-16T03:44:57.602Z,57.60
2022-11-16T03:45:57.784Z,51.20
2022-11-16T03:46:57.970Z,53.40
2022-11-16T03:47:58.173Z,49.40
2022-11-16T03:48:58.382Z,51.10
2022-11-16T03:49:58.526Z,56.30
2022-11-16T03:50:58.692Z,54.70
2022-11-16T03:51:58.876Z,52.80
2022-11-16T03:52:59.060Z,57.50
2022-11-16T03:53:59.270Z,63.90
2022-11-16T03:54:59.421Z,53.70
2022-11-16T03:55:59.590Z,61.10
2022-11-16T03:56:59.780Z,68.30
2022-11-16T03:57:59.965Z,61.20
2022-11-16T03:59:00.171Z,73.20
2022-11-16T04:00:00.317Z,56.20
2022-11-16T04:01:00.556Z,54.20
2022-11-16T04:02:00.671Z,59.80
2022-11-16T04:03:00.859Z,63.40
2022-11-16T04:04:01.057Z,76.40
2022-11-16T04:05:01.207Z,71.50
2022-11-16T04:06:01.490Z,60.80
2022-11-16T04:07:01.595Z,70.00
2022-11-16T04:08:01.731Z,73.90
2022-11-16T04:09:01.942Z,75.40
2022-11-16T04:10:02.090Z,68.60
2022-11-16T04:11:02.274Z,66.90
2022-11-16T04:12:02.453Z,67.60
2022-11-16T04:13:02.629Z,78.90
2022-11-16T04:14:06.613Z,67.40
2022-11-16T04:15:03.989Z,73.00
2022-11-16T04:16:03.151Z,79.60
2022-11-16T04:17:03.330Z,63.20
2022-11-16T04:18:03.520Z,72.90
2022-11-16T04:19:03.707Z,60.60
2022-11-16T04:20:03.878Z,73.70
2022-11-16T04:21:04.069Z,74.30
2022-11-16T04:22:04.219Z,82.30
2022-11-16T04:23:04.403Z,82.30
2022-11-16T04:24:04.590Z,82.60
2022-11-16T04:25:04.768Z,87.10
2022-11-16T04:26:04.949Z,66.80
2022-11-16T04:27:05.133Z,91.00
2022-11-16T04:28:05.308Z,75.10
2022-11-16T04:29:05.499Z,86.10
2022-11-16T04:30:05.648Z,86.30
2022-11-16T04:31:05.830Z,100.10
2022-11-16T04:32:06.017Z,66.10
2022-11-16T04:33:06.197Z,86.30
2022-11-16T04:34:06.408Z,68.30
2022-11-16T04:35:06.558Z,70.80
2022-11-16T04:36:06.737Z,77.60
2022-11-16T04:37:06.918Z,90.50
2022-11-16T04:38:07.088Z,78.80
2022-11-16T04:39:07.288Z,88.00
2022-11-16T04:40:07.429Z,79.20
2022-11-16T04:41:07.616Z,88.50
2022-11-16T04:42:07.787Z,89.10
2022-11-16T04:43:07.979Z,92.60
2022-11-16T04:44:08.168Z,86.20
2022-11-16T04:45:08.347Z,81.60
2022-11-16T04:46:08.527Z,74.80
2022-11-16T04:47:08.715Z,89.10
2022-11-16T04:48:08.886Z,86.60
2022-11-16T04:49:09.077Z,89.50
2022-11-16T04:50:09.249Z,90.60
2022-11-16T04:51:09.429Z,95.60
2022-11-16T04:52:09.605Z,99.10
2022-11-16T04:53:09.785Z,82.60
2022-11-16T04:54:09.976Z,86.00
2022-11-16T04:55:10.154Z,80.60
2022-11-16T04:56:10.326Z,99.70
2022-11-16T04:57:10.516Z,97.00
2022-11-16T04:58:10.687Z,98.90
2022-11-16T04:59:10.896Z,84.30
2022-11-16T05:00:11.037Z,93.20
2022-11-16T05:01:11.256Z,89.70
2022-11-16T05:02:11.387Z,77.90
2022-11-16T05:03:11.566Z,93.20
2022-11-16T05:04:11.768Z,80.20
2022-11-16T05:05:11.925Z,86.40
2022-11-16T05:06:12.107Z,89.40
2022-11-16T05:07:12.372Z,81.40
2022-11-16T05:08:12.466Z,76.30
2022-11-16T05:09:12.678Z,92.90
2022-11-16T05:10:12.854Z,99.00
2022-11-16T05:11:12.997Z,85.90
2022-11-16T05:12:13.176Z,86.00
2022-11-16T05:13:13.355Z,95.00
2022-11-16T05:14:13.547Z,84.30
2022-11-16T05:15:13.697Z,111.10
2022-11-16T05:16:13.846Z,93.60
2022-11-16T05:17:14.037Z,85.10
2022-11-16T05:18:14.196Z,95.70
2022-11-16T05:19:14.387Z,109.40
2022-11-16T05:20:14.536Z,103.50
2022-11-16T05:21:14.725Z,95.70
2022-11-16T05:22:14.905Z,111.70
2022-11-16T05:23:15.096Z,99.90
2022-11-16T05:24:15.295Z,113.60
2022-11-16T05:25:15.455Z,118.00
2022-11-16T05:26:15.605Z,113.50
2022-11-16T05:27:15.803Z,116.40
2022-11-16T05:28:16.002Z,105.80
2022-11-16T05:29:16.186Z,128.00
2022-11-16T05:30:16.334Z,111.70
2022-11-16T05:31:16.538Z,124.10
2022-11-16T05:32:16.684Z,128.70
2022-11-16T05:33:16.883Z,129.10
2022-11-16T05:34:17.066Z,121.80
2022-11-16T05:35:17.214Z,119.80
2022-11-16T05:36:17.375Z,116.60
2022-11-16T05:37:17.565Z,125.40
2022-11-16T05:38:17.714Z,94.70
2022-11-16T05:39:17.903Z,109.10
2022-11-16T05:40:18.081Z,113.40
2022-11-16T05:41:18.235Z,98.60
2022-11-16T05:42:18.404Z,145.10
2022-11-16T05:43:18.565Z,113.60
2022-11-16T05:44:18.744Z,115.50
2022-11-16T05:45:21.151Z,93.50
2022-11-16T05:46:19.096Z,113.70
2022-11-16T05:47:19.296Z,131.70
2022-11-16T05:48:19.444Z,119.80
2022-11-16T05:49:19.652Z,125.30
2022-11-16T05:50:19.804Z,90.80
2022-11-16T05:51:19.983Z,121.60
2022-11-16T05:52:20.133Z,118.80
2022-11-16T05:53:20.323Z,91.30
2022-11-16T05:54:20.541Z,148.20
2022-11-16T05:55:20.697Z,124.80
2022-11-16T05:56:20.948Z,96.50
2022-11-16T05:57:21.013Z,126.50
2022-11-16T05:58:21.163Z,110.00
2022-11-16T05:59:21.382Z,95.20
2022-11-16T06:00:21.614Z,96.80
2022-11-16T06:01:21.683Z,97.80
2022-11-16T06:02:21.863Z,88.10
2022-11-16T06:03:22.078Z,129.30
2022-11-16T06:04:27.293Z,103.50
2022-11-16T06:05:22.374Z,97.90
2022-11-16T06:06:22.553Z,129.40
2022-11-16T06:07:22.800Z,120.90
2022-11-16T06:08:22.912Z,105.20
2022-11-16T06:09:23.112Z,113.20
2022-11-16T06:10:23.290Z,121.50
2022-11-16T06:11:23.429Z,139.60
2022-11-16T06:12:23.623Z,125.40
2022-11-16T06:13:23.788Z,114.60
2022-11-16T06:14:23.970Z,104.80
2022-11-16T06:15:24.121Z,102.30
2022-11-16T06:16:24.292Z,109.90
2022-11-16T06:17:24.480Z,104.20
2022-11-16T06:18:24.655Z,121.40
2022-11-16T06:19:29.597Z,138.90
2022-11-16T06:20:25.981Z,138.20
2022-11-16T06:21:25.150Z,125.60
2022-11-16T06:22:25.329Z,151.70
2022-11-16T06:23:25.509Z,142.50
2022-11-16T06:24:25.712Z,151.40
2022-11-16T06:25:25.849Z,142.40
2022-11-16T06:26:26.032Z,174.70
2022-11-16T06:27:26.213Z,166.60
2022-11-16T06:28:26.393Z,170.20
2022-11-16T06:29:26.574Z,229.80
2022-11-16T06:30:26.751Z,117.20
2022-11-16T06:31:26.944Z,154.90
2022-11-16T06:32:27.101Z,166.40
2022-11-16T06:33:30.887Z,127.80
2022-11-16T06:34:28.492Z,202.40
2022-11-16T06:35:27.670Z,161.20
2022-11-16T06:36:27.810Z,165.70
2022-11-16T06:37:27.990Z,150.70
2022-11-16T06:38:28.184Z,163.00
2022-11-16T06:39:28.341Z,169.00
2022-11-16T06:40:28.531Z,166.40
2022-11-16T06:41:28.714Z,133.00
2022-11-16T06:42:28.912Z,167.40
2022-11-16T06:43:29.061Z,143.20
2022-11-16T06:44:29.248Z,152.00
2022-11-16T06:45:29.442Z,153.80
2022-11-16T06:46:29.615Z,142.00
2022-11-16T06:47:29.769Z,146.30
2022-11-16T06:48:29.931Z,140.70
2022-11-16T06:49:30.092Z,111.40
2022-11-16T06:50:30.315Z,105.90
2022-11-16T06:51:30.445Z,105.20
2022-11-16T06:52:30.660Z,97.60
2022-11-16T06:53:30.826Z,101.60
2022-11-16T06:54:30.979Z,100.70
2022-11-16T06:55:31.180Z,98.80
2022-11-16T06:56:31.365Z,106.60
2022-11-16T06:57:31.501Z,91.20
2022-11-16T06:58:32.138Z,85.80
2022-11-16T06:59:31.868Z,94.40
2022-11-16T07:00:32.049Z,97.20
2022-11-16T07:01:32.244Z,89.80
2022-11-16T07:02:32.378Z,86.50
2022-11-16T07:03:32.539Z,80.50
2022-11-16T07:04:32.706Z,91.50
2022-11-16T07:05:32.880Z,78.70
2022-11-16T07:06:33.128Z,70.90
2022-11-16T07:07:33.335Z,82.10
2022-11-16T07:08:33.722Z,87.30
2022-11-16T07:09:33.558Z,76.40
2022-11-16T07:10:33.750Z,76.60
2022-11-16T07:11:33.918Z,89.50
2022-11-16T07:12:34.098Z,91.40
2022-11-16T07:13:34.267Z,97.80
2022-11-16T07:14:34.445Z,92.90
2022-11-16T07:15:34.621Z,85.40
2022-11-16T07:16:34.790Z,98.10
2022-11-16T07:17:34.957Z,85.50
2022-11-16T07:18:35.614Z,89.50
2022-11-16T07:19:35.278Z,95.70
2022-11-16T07:20:35.466Z,94.90
2022-11-16T07:21:35.627Z,95.50
2022-11-16T07:22:35.804Z,92.70
2022-11-16T07:23:35.977Z,95.90
2022-11-16T07:24:36.156Z,94.30
2022-11-16T07:25:36.317Z,107.50
2022-11-16T07:26:36.498Z,102.00
2022-11-16T07:27:36.661Z,94.10
2022-11-16T07:28:37.114Z,102.20
2022-11-16T07:29:36.996Z,93.80
2022-11-16T07:30:37.178Z,106.70
2022-11-16T07:31:37.317Z,110.30
2022-11-16T07:32:37.527Z,99.20
2022-11-16T07:33:37.689Z,84.30
2022-11-16T07:34:37.855Z,100.20
2022-11-16T07:35:38.046Z,107.40
2022-11-16T07:36:38.226Z,112.10
2022-11-16T07:37:38.395Z,96.90
2022-11-16T07:38:38.547Z,109.90
2022-11-16T07:39:38.704Z,110.30
2022-11-16T07:40:38.913Z,102.40
2022-11-16T07:41:39.057Z,120.10
2022-11-16T07:42:39.266Z,133.60
2022-11-16T07:43:39.420Z,123.70
2022-11-16T07:44:39.606Z,119.40
2022-11-16T07:45:39.776Z,125.50
2022-11-16T07:46:48.473Z,126.40
2022-11-16T07:47:41.105Z,124.70
2022-11-16T07:48:40.316Z,135.50
2022-11-16T07:49:40.475Z,132.70
2022-11-16T07:50:40.665Z,122.60
2022-11-16T07:51:40.805Z,124.00
2022-11-16T07:52:41.006Z,119.70
2022-11-16T07:53:41.156Z,111.60
2022-11-16T07:54:41.360Z,120.00
2022-11-16T07:55:41.535Z,151.20
2022-11-16T07:56:41.677Z,160.40
2022-11-16T07:57:41.876Z,152.50
2022-11-16T07:58:42.074Z,149.70
2022-11-16T07:59:42.234Z,156.20
2022-11-16T08:00:42.403Z,136.40
2022-11-16T08:01:42.585Z,143.40
2022-11-16T08:02:42.754Z,147.40
2022-11-16T08:03:42.902Z,157.00
2022-11-16T08:04:43.115Z,156.50
2022-11-16T08:05:43.244Z,138.70
2022-11-16T08:06:43.443Z,165.60
2022-11-16T08:07:43.606Z,158.60
2022-11-16T08:08:43.751Z,151.40
2022-11-16T08:09:43.986Z,180.70
2022-11-16T08:10:44.114Z,177.20
2022-11-16T08:11:44.254Z,167.90
2022-11-16T08:12:44.433Z,157.90
2022-11-16T08:13:44.623Z,202.20
2022-11-16T08:14:44.827Z,163.50
2022-11-16T08:15:45.014Z,160.10
2022-11-16T08:16:45.165Z,151.00
2022-11-16T08:17:45.353Z,174.00
2022-11-16T08:18:45.543Z,148.70
2022-11-16T08:19:45.848Z,158.60
2022-11-16T08:20:45.924Z,175.40
2022-11-16T08:21:46.071Z,168.40
2022-11-16T08:22:46.263Z,190.40
2022-11-16T08:23:46.445Z,160.00
2022-11-16T08:24:46.632Z,174.80
2022-11-16T08:25:46.823Z,187.60
2022-11-16T08:26:46.972Z,165.40
2022-11-16T08:27:47.152Z,188.50
2022-11-16T08:28:47.353Z,173.90
2022-11-16T08:29:47.533Z,177.90
2022-11-16T08:30:53.484Z,163.70
2022-11-16T08:31:48.902Z,196.50
2022-11-16T08:32:48.101Z,179.50
2022-11-16T08:33:48.253Z,182.60
2022-11-16T08:34:48.446Z,179.70
2022-11-16T08:35:48.650Z,169.10
2022-11-16T08:36:48.855Z,169.90
2022-11-16T08:37:49.005Z,165.30
2022-11-16T08:38:49.187Z,183.00
2022-11-16T08:39:49.361Z,168.00
2022-11-16T08:40:49.621Z,150.60
2022-11-16T08:41:49.711Z,166.80
2022-11-16T08:42:49.917Z,151.40
2022-11-16T08:43:50.090Z,158.70
2022-11-16T08:44:50.271Z,142.70
2022-11-16T08:45:50.431Z,150.20
2022-11-16T08:46:50.622Z,143.70
2022-11-16T08:47:53.672Z,150.80
2022-11-16T08:48:51.969Z,139.90
2022-11-16T08:49:51.151Z,136.30
2022-11-16T08:51:15.899Z,140.80
2022-11-16T08:51:52.533Z,160.30
2022-11-16T08:52:51.731Z,147.60
2022-11-16T08:53:51.871Z,156.30
2022-11-16T08:54:52.071Z,145.50
2022-11-16T08:55:52.241Z,135.70
2022-11-16T08:56:52.422Z,152.10
2022-11-16T08:57:52.621Z,160.00
2022-11-16T08:58:58.100Z,156.80
2022-11-16T08:59:53.961Z,137.30
2022-11-16T09:00:53.169Z,134.90
2022-11-16T09:01:53.325Z,125.20
2022-11-16T09:02:53.505Z,139.80
2022-11-16T09:03:53.696Z,134.60
2022-11-16T09:04:53.851Z,154.00
2022-11-16T09:05:54.079Z,140.30
2022-11-16T09:06:54.223Z,135.80
2022-11-16T09:07:54.333Z,137.90
2022-11-16T09:08:54.498Z,151.30
2022-11-16T09:09:54.658Z,152.20
2022-11-16T09:10:54.871Z,154.00
2022-11-16T09:11:54.989Z,153.30
2022-11-16T09:12:55.178Z,156.20
2022-11-16T09:13:55.339Z,157.10
2022-11-16T09:14:55.509Z,163.30
2022-11-16T09:15:55.686Z,156.00
2022-11-16T09:16:55.866Z,156.90
2022-11-16T09:17:56.016Z,155.10
2022-11-16T09:18:56.211Z,163.60
2022-11-16T09:19:56.348Z,160.50
2022-11-16T09:20:56.531Z,154.20
2022-11-16T09:21:56.744Z,159.30
2022-11-16T09:22:56.887Z,170.70
2022-11-16T09:23:57.082Z,145.70
2022-11-16T09:24:57.237Z,146.10
2022-11-16T09:25:57.409Z,144.60
2022-11-16T09:26:57.632Z,143.50
2022-11-16T09:27:57.774Z,145.50
2022-11-16T09:28:57.959Z,153.30
2022-11-16T09:29:58.108Z,139.00
2022-11-16T09:30:58.317Z,150.70
2022-11-16T09:31:58.469Z,158.70
2022-11-16T09:32:58.653Z,137.70
2022-11-16T09:33:59.081Z,167.40
2022-11-16T09:34:58.956Z,145.80
2022-11-16T09:35:59.149Z,123.50
2022-11-16T09:36:59.318Z,123.00
2022-11-16T09:37:59.483Z,121.80
2022-11-16T09:39:30.050Z,117.50
2022-11-16T09:40:00.846Z,119.80
2022-11-16T09:41:00.036Z,123.00
2022-11-16T09:42:00.167Z,114.60
2022-11-16T09:43:00.359Z,99.90
2022-11-16T09:44:00.536Z,110.00
2022-11-16T09:45:00.711Z,105.40
2022-11-16T09:46:00.877Z,105.40
2022-11-16T09:47:01.037Z,116.00
2022-11-16T09:48:01.205Z,112.20
2022-11-16T09:49:01.377Z,101.70
2022-11-16T09:50:04.075Z,113.00
2022-11-16T09:51:01.730Z,104.10
2022-11-16T09:52:01.896Z,97.00
2022-11-16T09:53:02.065Z,94.20
2022-11-16T09:54:02.236Z,106.00
2022-11-16T09:55:02.418Z,90.40
2022-11-16T09:56:02.611Z,90.50
2022-11-16T09:57:05.668Z,86.30
2022-11-16T09:58:03.946Z,83.70
2022-11-16T09:59:03.106Z,89.00
2022-11-16T10:00:03.300Z,93.50
2022-11-16T10:01:03.529Z,91.40
2022-11-16T10:02:03.637Z,92.50
2022-11-16T10:03:03.816Z,88.50
2022-11-16T10:04:03.995Z,81.00
2022-11-16T10:05:04.216Z,81.20
2022-11-16T10:06:04.409Z,82.50
2022-11-16T10:07:04.592Z,79.90
2022-11-16T10:08:04.716Z,87.40
2022-11-16T10:09:04.898Z,82.40
2022-11-16T10:10:05.094Z,87.50
2022-11-16T10:11:05.283Z,77.50
2022-11-16T10:12:05.444Z,79.80
2022-11-16T10:13:05.626Z,80.80
2022-11-16T10:14:05.777Z,74.80
2022-11-16T10:15:05.956Z,82.70
2022-11-16T10:16:06.149Z,81.90
2022-11-16T10:17:06.323Z,76.00
2022-11-16T10:18:06.465Z,75.00
2022-11-16T10:19:06.637Z,83.40
2022-11-16T10:20:06.805Z,77.90
2022-11-16T10:21:07.006Z,77.20
2022-11-16T10:22:07.144Z,70.10
2022-11-16T10:23:07.335Z,76.20
2022-11-16T10:24:07.496Z,73.80
2022-11-16T10:25:07.674Z,74.00
2022-11-16T10:26:07.858Z,78.90
2022-11-16T10:27:08.015Z,68.40
2022-11-16T10:28:08.183Z,67.60
2022-11-16T10:29:08.387Z,68.90
2022-11-16T10:30:08.532Z,61.40
2022-11-16T10:31:08.756Z,64.80
2022-11-16T10:32:08.913Z,73.80
2022-11-16T10:33:11.329Z,64.60
2022-11-16T10:34:09.204Z,70.10
2022-11-16T10:35:09.376Z,60.70
2022-11-16T10:36:09.554Z,57.40
2022-11-16T10:37:09.816Z,57.00
2022-11-16T10:38:09.894Z,56.70
2022-11-16T10:39:10.058Z,57.70
2022-11-16T10:40:10.225Z,62.80
2022-11-16T10:41:10.413Z,53.60
2022-11-16T10:42:10.575Z,51.50
2022-11-16T10:43:10.757Z,55.40
2022-11-16T10:44:10.924Z,56.50
2022-11-16T10:45:11.087Z,58.00
2022-11-16T10:46:11.276Z,49.50
2022-11-16T10:47:11.421Z,57.80
2022-11-16T10:48:11.594Z,51.30
2022-11-16T10:49:11.773Z,57.10
2022-11-16T10:50:11.954Z,50.60
2022-11-16T10:51:12.172Z,50.90
2022-11-16T10:52:12.313Z,46.00
2022-11-16T10:53:12.503Z,48.30
2022-11-16T10:54:12.680Z,48.80
2022-11-16T10:55:12.852Z,45.80
2022-11-16T10:56:13.091Z,45.00
2022-11-16T10:57:13.221Z,40.90
2022-11-16T10:58:13.405Z,42.40
2022-11-16T10:59:13.552Z,41.00
2022-11-16T11:00:16.142Z,38.50
2022-11-16T11:01:14.981Z,40.60
2022-11-16T11:02:14.084Z,38.70
2022-11-16T11:03:14.255Z,40.30
2022-11-16T11:04:14.445Z,40.70
2022-11-16T11:05:14.632Z,37.80
2022-11-16T11:06:14.821Z,36.50
2022-11-16T11:07:15.035Z,34.20
2022-11-16T11:08:15.174Z,34.60
2022-11-16T11:09:15.331Z,35.20
2022-11-16T11:10:15.530Z,33.20
2022-11-16T11:11:15.684Z,30.90
2022-11-16T11:12:15.881Z,27.80
2022-11-16T11:13:16.095Z,30.30
2022-11-16T11:14:16.243Z,29.00
2022-11-16T11:15:20.137Z,29.10
2022-11-16T11:16:17.603Z,30.10
2022-11-16T11:17:16.752Z,25.30
2022-11-16T11:18:16.933Z,25.60
2022-11-16T11:19:17.101Z,31.30
2022-11-16T11:20:17.469Z,28.60
2022-11-16T11:21:17.446Z,27.50
2022-11-16T11:22:17.623Z,23.40
2022-11-16T11:23:17.803Z,29.20
2022-11-16T11:24:43.387Z,26.20
2022-11-16T11:25:19.131Z,32.10
2022-11-16T11:26:18.311Z,26.90
2022-11-16T11:27:18.542Z,30.30
2022-11-16T11:28:18.662Z,32.20
2022-11-16T11:29:18.832Z,27.20
2022-11-16T11:30:19.031Z,28.80
2022-11-16T11:31:19.191Z,27.20
2022-11-16T11:32:23.770Z,26.60
2022-11-16T11:33:19.501Z,32.40
2022-11-16T11:34:19.671Z,29.20
2022-11-16T11:35:19.850Z,29.20
2022-11-16T11:36:20.032Z,29.70
2022-11-16T11:37:20.208Z,26.50
2022-11-16T11:38:20.381Z,29.20
2022-11-16T11:39:20.617Z,34.60
2022-11-16T11:40:20.727Z,29.60
2022-11-16T11:41:20.900Z,31.20
2022-11-16T11:42:21.100Z,29.30
2022-11-16T11:43:21.229Z,31.20
2022-11-16T11:44:21.412Z,36.30
2022-11-16T11:45:21.580Z,31.80
2022-11-16T11:46:21.776Z,31.50
2022-11-16T11:47:56.169Z,30.50
2022-11-16T11:48:23.089Z,34.00
2022-11-16T11:49:22.260Z,30.50
2022-11-16T11:50:22.452Z,34.30
2022-11-16T11:51:22.618Z,32.70
2022-11-16T11:52:22.799Z,36.90
2022-11-16T11:53:22.972Z,35.20
2022-11-16T11:54:23.136Z,33.70
2022-11-16T11:55:23.311Z,36.50
2022-11-16T11:56:23.458Z,36.60
2022-11-16T11:57:23.757Z,31.50
2022-11-16T11:58:23.849Z,36.20
2022-11-16T11:59:23.989Z,32.70
2022-11-16T12:00:24.159Z,34.80
2022-11-16T12:01:25.777Z,34.80
2022-11-16T12:02:24.526Z,30.80
2022-11-16T12:03:24.710Z,33.90
2022-11-16T12:04:24.849Z,38.60
2022-11-16T12:05:25.043Z,33.10
2022-11-16T12:06:25.226Z,37.40
2022-11-16T12:07:25.503Z,38.00
2022-11-16T12:08:25.596Z,35.40
2022-11-16T12:09:25.729Z,33.50
2022-11-16T12:10:25.897Z,33.90
2022-11-16T12:11:26.058Z,33.90
2022-11-16T12:12:26.270Z,31.80
2022-11-16T12:13:26.420Z,32.00
2022-11-16T12:14:26.586Z,30.20
2022-11-16T12:15:26.747Z,34.80
2022-11-16T12:16:26.917Z,34.90
2022-11-16T12:17:27.097Z,34.50
2022-11-16T12:18:27.306Z,30.10
2022-11-16T12:19:27.444Z,30.90
2022-11-16T12:20:27.599Z,30.20
2022-11-16T12:21:27.767Z,34.40
2022-11-16T12:22:27.948Z,32.60
2022-11-16T12:23:28.138Z,29.90
2022-11-16T12:24:28.285Z,29.80
2022-11-16T12:25:28.486Z,30.50
2022-11-16T12:26:28.628Z,29.90
2022-11-16T12:27:28.796Z,28.30
2022-11-16T12:28:28.979Z,28.10
2022-11-16T12:29:29.139Z,26.80
2022-11-16T12:30:29.318Z,28.70
2022-11-16T12:31:29.486Z,23.10
2022-11-16T12:32:29.686Z,24.10
2022-11-16T12:33:29.828Z,27.80
2022-11-16T12:34:29.996Z,25.20
2022-11-16T12:35:30.177Z,26.30
2022-11-16T12:36:30.349Z,23.60
2022-11-16T12:37:30.545Z,27.20
2022-11-16T12:38:30.686Z,24.10
2022-11-16T12:39:30.855Z,29.80
2022-11-16T12:40:31.049Z,25.00
2022-11-16T12:41:31.207Z,26.10
2022-11-16T12:42:31.398Z,23.70
2022-11-16T12:43:31.833Z,23.20
2022-11-16T12:44:31.736Z,29.10